KCNO/CNO METAR and TAF weather

Enter ICAO airport designator
Station Type Date Time Source
KCNO METAR 2020/03/28 20:53 UTC NOAA

KCNO 282053Z 25005KT 10SM FEW070 BKN250 19/04 A3014 RMK AO2 SLP206 T01940039 58024


Station Type Date Time Source
KCNO Decoded METAR 2020/03/28 20:53 UTC NOAA

CHINO AIRPORT, CA, United States (KCNO) 33-58N 117-38W 207M
Mar 28, 2020 - 04:53 PM EDT / 2020.03.28 2053 UTC
Wind: from the WSW (250 degrees) at 6 MPH (5 KT):0
Visibility: 10 mile(s):0
Sky conditions: mostly cloudy
Temperature: 66.9 F (19.4 C)
Dew Point: 39.0 F (3.9 C)
Relative Humidity: 35%
Pressure (altimeter): 30.14 in. Hg (1020 hPa)
Pressure tendency: 0.07 inches (2.4 hPa) lower than three hours ago
ob: KCNO 282053Z 25005KT 10SM FEW070 BKN250 19/04 A3014 RMK AO2 SLP206 T01940039 58024
cycle: 21

Station Type Date Time Source
KCNO TAF UTC NOAA

Error!

Example: see airport list